Time;durP1;ratioP1;P1;durP2;ratioP2;P2;SDS_P1;SDS_P2;PMS_P1;PMS_P2;Temp;Humidity;BMP_temperature;BMP_pressure;BME280_temperature;BME280_humidity;BME280_pressure;Samples;Min_cycle;Max_cycle;Signal;HPM_P1;HPM_P2
2022/06/16 00:00:24;;;;;;;3.83;2.90;;;20.90;93.50;;;;;;5014301;28;20271;-66
2022/06/16 00:02:52;;;;;;;2.80;2.60;;;20.80;93.70;;;;;;5013808;28;20229;-65
2022/06/16 00:05:24;;;;;;;4.63;2.70;;;20.80;93.90;;;;;;5007122;28;20236;-66
2022/06/16 00:07:52;;;;;;;4.80;2.10;;;20.80;94.00;;;;;;5012242;28;20284;-66
2022/06/16 00:10:22;;;;;;;2.88;2.30;;;20.80;94.20;;;;;;4995571;28;20236;-66
2022/06/16 00:12:51;;;;;;;3.97;2.45;;;20.80;94.20;;;;;;4997411;28;20209;-65
2022/06/16 00:15:21;;;;;;;2.40;2.20;;;20.70;94.30;;;;;;5004393;28;20257;-64
2022/06/16 00:17:49;;;;;;;2.92;2.65;;;20.70;94.40;;;;;;5014406;28;20256;-65
2022/06/16 00:20:18;;;;;;;2.53;2.33;;;20.70;94.70;;;;;;5014387;28;20197;-65
2022/06/16 00:22:47;;;;;;;3.45;2.75;;;20.60;94.90;;;;;;5013608;28;20205;-67
2022/06/16 00:25:16;;;;;;;2.40;2.05;;;20.60;95.30;;;;;;5003871;28;20221;-65
2022/06/16 00:27:44;;;;;;;4.00;2.50;;;20.60;95.50;;;;;;4995068;28;20253;-67
2022/06/16 00:30:14;;;;;;;4.22;2.40;;;20.60;95.40;;;;;;4995161;28;20916;-65
2022/06/16 00:32:42;;;;;;;2.58;2.47;;;20.50;95.60;;;;;;4994482;28;20217;-65
2022/06/16 00:35:11;;;;;;;2.97;2.50;;;20.60;95.60;;;;;;4995030;28;20209;-65
2022/06/16 00:37:39;;;;;;;2.83;2.30;;;20.50;96.10;;;;;;4995029;28;20264;-66
2022/06/16 00:40:10;;;;;;;2.60;2.40;;;20.40;96.20;;;;;;4995186;28;20206;-66
2022/06/16 00:42:39;;;;;;;3.55;2.53;;;20.40;96.30;;;;;;4994072;28;20226;-67
2022/06/16 00:45:40;;;;;;;3.00;2.80;;;20.30;96.60;;;;;;5004160;28;20274;-65
2022/06/16 00:48:09;;;;;;;2.85;2.45;;;20.20;96.50;;;;;;4990861;28;20649;-66
2022/06/16 00:50:37;;;;;;;6.25;2.85;;;20.20;96.80;;;;;;4994726;28;20257;-66
2022/06/16 00:53:05;;;;;;;2.50;2.30;;;20.10;97.00;;;;;;4994097;28;20229;-65
2022/06/16 00:55:35;;;;;;;2.90;2.50;;;20.10;97.00;;;;;;4994667;28;20206;-66
2022/06/16 00:58:03;;;;;;;3.72;2.60;;;20.00;97.10;;;;;;4994591;28;20214;-66
2022/06/16 01:00:33;;;;;;;2.67;2.30;;;19.90;97.30;;;;;;4994450;28;20292;-65
2022/06/16 01:03:00;;;;;;;3.65;2.58;;;19.90;97.40;;;;;;4993955;28;20208;-65
2022/06/16 01:05:28;;;;;;;4.88;3.00;;;19.90;97.80;;;;;;5008833;28;20252;-65
2022/06/16 01:07:57;;;;;;;2.47;2.20;;;19.80;97.80;;;;;;5013620;28;20201;-66
2022/06/16 01:10:31;;;;;;;2.58;2.38;;;19.80;97.90;;;;;;5013123;28;20225;-65
2022/06/16 01:13:43;;;;;;;5.82;2.80;;;19.70;98.10;;;;;;4998242;28;20933;-65
2022/06/16 01:16:21;;;;;;;3.50;1.70;;;19.70;98.30;;;;;;4999152;28;20236;-65
2022/06/16 01:18:59;;;;;;;3.58;2.28;;;19.70;98.40;;;;;;5007724;28;20198;-65
2022/06/16 01:21:51;;;;;;;4.80;2.60;;;19.70;98.50;;;;;;4994187;28;20253;-65
2022/06/16 01:24:38;;;;;;;3.60;2.70;;;19.70;98.60;;;;;;4993707;28;20193;-65
2022/06/16 01:27:24;;;;;;;2.72;2.53;;;19.70;99.00;;;;;;4994135;28;20233;-67
2022/06/16 01:29:59;;;;;;;3.35;2.67;;;19.70;99.20;;;;;;4987914;28;20301;-65
2022/06/16 01:32:38;;;;;;;3.08;2.55;;;19.70;99.50;;;;;;4993289;28;20215;-66
2022/06/16 01:35:12;;;;;;;3.38;2.50;;;19.70;99.60;;;;;;5001990;28;20228;-65
2022/06/16 01:37:50;;;;;;;3.10;2.55;;;19.50;99.90;;;;;;5012790;28;20236;-65
2022/06/16 01:40:22;;;;;;;2.40;2.20;;;19.50;99.90;;;;;;5012685;28;20251;-65
2022/06/16 01:42:57;;;;;;;3.97;2.58;;;19.50;99.90;;;;;;5005635;28;20246;-66
2022/06/16 01:45:31;;;;;;;2.80;2.58;;;19.50;99.90;;;;;;5009508;28;20205;-65
2022/06/16 01:48:01;;;;;;;2.33;2.22;;;19.50;99.90;;;;;;4987540;28;20676;-65
2022/06/16 01:50:33;;;;;;;2.45;2.25;;;19.40;99.90;;;;;;4994094;28;20229;-65
2022/06/16 01:53:04;;;;;;;3.95;2.58;;;19.40;99.90;;;;;;4987737;28;20202;-65
2022/06/16 01:55:37;;;;;;;3.83;2.88;;;19.50;99.90;;;;;;4993157;28;20202;-65
2022/06/16 01:58:09;;;;;;;3.50;2.65;;;19.40;99.90;;;;;;4993664;28;20206;-65
2022/06/16 02:00:39;;;;;;;3.20;2.90;;;19.30;99.90;;;;;;4993393;28;20229;-65
2022/06/16 02:03:11;;;;;;;3.28;2.80;;;19.30;99.90;;;;;;4992785;28;20664;-66
2022/06/16 02:05:43;;;;;;;5.68;2.55;;;19.30;99.90;;;;;;4993282;28;20679;-66
2022/06/16 02:08:15;;;;;;;2.90;2.20;;;19.30;99.90;;;;;;4993567;28;20627;-65
2022/06/16 02:10:47;;;;;;;3.90;2.55;;;19.20;99.90;;;;;;4992993;28;20291;-65
2022/06/16 02:13:20;;;;;;;3.90;2.78;;;19.20;99.90;;;;;;4996660;28;20201;-65
2022/06/16 02:15:54;;;;;;;2.22;2.00;;;19.10;99.90;;;;;;5000264;28;20675;-65
2022/06/16 02:18:25;;;;;;;3.10;2.80;;;19.20;99.90;;;;;;4992575;28;20607;-65
2022/06/16 02:20:59;;;;;;;4.60;2.42;;;19.00;99.90;;;;;;5011940;28;20217;-65
2022/06/16 02:23:27;;;;;;;2.30;2.10;;;19.00;99.90;;;;;;4986796;28;20210;-66
2022/06/16 02:25:57;;;;;;;2.78;2.42;;;19.00;99.90;;;;;;4997486;28;20256;-65
2022/06/16 02:28:26;;;;;;;3.10;2.40;;;19.10;99.90;;;;;;5011746;28;20639;-65
2022/06/16 02:31:10;;;;;;;3.65;2.75;;;19.10;99.90;;;;;;5011584;28;20260;-65
2022/06/16 02:33:49;;;;;;;3.67;2.55;;;19.10;99.90;;;;;;5011191;28;21002;-65
2022/06/16 02:36:31;;;;;;;5.57;2.60;;;19.10;99.90;;;;;;5011715;28;20209;-65
2022/06/16 02:39:11;;;;;;;2.63;2.17;;;19.10;99.90;;;;;;5011721;28;20225;-65
2022/06/16 02:41:49;;;;;;;2.60;2.25;;;19.10;99.90;;;;;;5006144;28;20255;-65
2022/06/16 02:44:26;;;;;;;2.85;2.60;;;19.10;99.90;;;;;;4998989;28;20325;-65
2022/06/16 02:47:02;;;;;;;3.10;2.60;;;19.00;99.90;;;;;;5009898;28;20197;-66
2022/06/16 02:49:37;;;;;;;2.85;2.63;;;19.00;99.90;;;;;;5011511;28;20604;-66
2022/06/16 02:52:15;;;;;;;2.45;2.25;;;19.00;99.90;;;;;;5010675;28;20248;-66
2022/06/16 02:54:48;;;;;;;7.03;2.50;;;19.00;99.90;;;;;;5011624;28;20201;-66
2022/06/16 02:57:21;;;;;;;4.80;2.40;;;19.00;99.90;;;;;;4987195;28;20205;-65
2022/06/16 02:59:53;;;;;;;4.15;2.58;;;19.00;99.90;;;;;;4992350;28;20259;-66
2022/06/16 03:02:25;;;;;;;2.65;2.45;;;19.00;99.90;;;;;;4999016;28;20340;-67
2022/06/16 03:04:54;;;;;;;4.28;2.30;;;19.00;99.90;;;;;;5011280;28;20239;-65
2022/06/16 03:07:22;;;;;;;2.47;2.28;;;19.00;99.90;;;;;;5011244;28;20237;-66
2022/06/16 03:09:50;;;;;;;2.53;2.33;;;19.00;99.90;;;;;;5011325;28;20240;-65
2022/06/16 03:12:19;;;;;;;2.70;2.50;;;19.00;99.90;;;;;;5008146;28;20293;-66
2022/06/16 03:14:46;;;;;;;2.90;2.00;;;18.90;99.90;;;;;;5005643;28;20240;-65
2022/06/16 03:17:15;;;;;;;3.05;2.40;;;18.90;99.90;;;;;;5002199;28;20694;-66
2022/06/16 03:19:44;;;;;;;2.38;2.20;;;19.00;99.90;;;;;;5011060;28;20572;-66
2022/06/16 03:22:12;;;;;;;2.10;2.00;;;19.00;99.90;;;;;;5010219;28;20240;-65
2022/06/16 03:24:42;;;;;;;3.88;2.47;;;19.00;99.90;;;;;;5011269;28;20284;-65
2022/06/16 03:27:12;;;;;;;3.50;2.70;;;19.00;99.90;;;;;;5010860;28;20236;-66
2022/06/16 03:29:40;;;;;;;2.35;2.25;;;19.10;99.90;;;;;;5010734;28;20210;-65
2022/06/16 03:32:08;;;;;;;5.18;2.67;;;19.10;99.90;;;;;;5006317;28;20233;-65
2022/06/16 03:34:37;;;;;;;8.25;2.80;;;19.00;99.90;;;;;;5010902;28;20205;-65
2022/06/16 03:37:06;;;;;;;2.53;2.33;;;19.00;99.90;;;;;;5010902;28;20236;-65
2022/06/16 03:39:34;;;;;;;7.05;2.10;;;19.00;99.90;;;;;;5010710;28;20217;-66
2022/06/16 03:42:02;;;;;;;5.93;3.00;;;19.00;99.90;;;;;;5010090;28;20746;-66
2022/06/16 03:44:30;;;;;;;3.30;2.85;;;18.90;99.90;;;;;;4994044;28;20232;-65
2022/06/16 03:46:58;;;;;;;3.13;2.83;;;18.90;99.90;;;;;;5008116;28;20745;-64
2022/06/16 03:49:26;;;;;;;2.53;2.33;;;18.80;99.90;;;;;;5010847;28;20223;-65
2022/06/16 03:51:54;;;;;;;4.40;3.10;;;18.80;99.90;;;;;;5001770;28;20312;-66
2022/06/16 03:54:23;;;;;;;4.45;3.10;;;18.80;99.90;;;;;;4991482;28;20213;-66
2022/06/16 03:56:51;;;;;;;2.75;2.55;;;18.80;99.90;;;;;;4991907;28;20284;-65
2022/06/16 03:59:21;;;;;;;2.95;2.65;;;18.80;99.90;;;;;;4991698;28;20202;-65
2022/06/16 04:01:49;;;;;;;4.18;2.65;;;18.70;99.90;;;;;;4992361;28;20233;-65
2022/06/16 04:04:21;;;;;;;5.03;2.70;;;18.80;99.90;;;;;;4991431;28;20209;-65
2022/06/16 04:06:51;;;;;;;3.92;2.50;;;18.80;99.90;;;;;;4994796;28;20622;-65
2022/06/16 04:09:19;;;;;;;3.15;2.25;;;18.70;99.90;;;;;;5010578;28;20659;-65
2022/06/16 04:11:48;;;;;;;7.07;3.00;;;18.70;99.90;;;;;;5010152;28;20257;-65
2022/06/16 04:14:16;;;;;;;3.78;3.10;;;18.70;99.90;;;;;;5001569;28;20197;-65
2022/06/16 04:16:46;;;;;;;5.70;2.90;;;18.80;99.90;;;;;;5004181;28;20209;-67
2022/06/16 04:19:17;;;;;;;5.60;3.03;;;18.80;99.90;;;;;;5010694;28;20673;-66
2022/06/16 04:21:46;;;;;;;3.22;2.83;;;18.70;99.90;;;;;;5006941;28;20225;-67
2022/06/16 04:24:16;;;;;;;4.82;3.17;;;18.70;99.90;;;;;;5009730;28;20205;-65
2022/06/16 04:26:45;;;;;;;4.07;2.53;;;18.70;99.90;;;;;;5010466;28;20256;-65
2022/06/16 04:29:14;;;;;;;4.43;3.25;;;18.70;99.90;;;;;;5010223;28;20205;-65
2022/06/16 04:31:42;;;;;;;4.00;2.70;;;18.70;99.90;;;;;;5009837;28;20261;-64
2022/06/16 04:34:10;;;;;;;6.70;3.10;;;18.80;99.90;;;;;;5009563;28;20201;-65
2022/06/16 04:36:38;;;;;;;2.92;2.60;;;18.80;99.90;;;;;;5010273;28;20259;-66
2022/06/16 04:39:07;;;;;;;4.50;2.97;;;18.90;99.90;;;;;;5010221;28;20209;-66
2022/06/16 04:41:35;;;;;;;3.63;3.30;;;19.00;99.90;;;;;;5010768;28;20304;-66
2022/06/16 04:44:03;;;;;;;3.50;2.95;;;19.00;99.90;;;;;;4998612;28;20652;-65
2022/06/16 04:46:32;;;;;;;3.88;3.33;;;19.00;99.90;;;;;;5009612;28;20205;-66
2022/06/16 04:49:00;;;;;;;6.65;3.58;;;19.00;99.90;;;;;;5013642;28;20210;-65
2022/06/16 04:51:28;;;;;;;4.75;3.60;;;19.10;99.90;;;;;;5013443;28;20662;-65
2022/06/16 04:53:56;;;;;;;2.92;2.63;;;19.10;99.90;;;;;;5012991;28;20295;-66
2022/06/16 04:56:24;;;;;;;2.63;2.33;;;19.20;99.90;;;;;;5013601;28;20651;-65
2022/06/16 04:58:53;;;;;;;5.63;3.22;;;19.30;99.90;;;;;;5013194;28;20209;-65
2022/06/16 05:01:20;;;;;;;5.18;3.17;;;19.40;99.90;;;;;;5013221;28;20648;-65
2022/06/16 05:03:51;;;;;;;3.40;2.65;;;19.50;99.90;;;;;;4994225;28;20589;-65
2022/06/16 05:06:19;;;;;;;5.38;3.03;;;19.50;99.90;;;;;;4994700;28;20210;-66
2022/06/16 05:08:48;;;;;;;3.80;2.35;;;19.60;99.90;;;;;;4994607;28;20667;-65
2022/06/16 05:11:16;;;;;;;5.18;2.95;;;19.70;99.90;;;;;;4994077;28;20719;-65
2022/06/16 05:13:44;;;;;;;5.13;2.70;;;19.80;99.90;;;;;;4997770;28;20299;-65
2022/06/16 05:16:12;;;;;;;4.07;2.50;;;19.80;99.90;;;;;;5011748;28;20212;-66
2022/06/16 05:18:40;;;;;;;3.95;2.90;;;19.90;99.90;;;;;;5013202;28;20205;-66
2022/06/16 05:21:11;;;;;;;5.50;2.75;;;19.90;99.90;;;;;;5007876;28;20756;-66
2022/06/16 05:23:40;;;;;;;3.03;2.45;;;19.90;99.90;;;;;;5011768;28;20201;-66
2022/06/16 05:26:09;;;;;;;4.10;2.75;;;20.00;99.90;;;;;;5013045;28;20240;-67
2022/06/16 05:28:37;;;;;;;3.53;2.85;;;20.00;99.90;;;;;;5013016;28;20240;-65
2022/06/16 05:31:05;;;;;;;6.35;3.15;;;20.00;99.90;;;;;;5012804;28;20225;-65
2022/06/16 05:33:34;;;;;;;3.80;2.90;;;20.10;99.90;;;;;;5012108;28;20221;-65
2022/06/16 05:36:05;;;;;;;3.20;2.90;;;20.10;99.90;;;;;;5008503;28;20244;-66
2022/06/16 05:38:35;;;;;;;3.58;3.00;;;20.20;99.90;;;;;;5012978;28;20229;-66
2022/06/16 05:41:06;;;;;;;4.85;2.88;;;20.20;99.90;;;;;;4987827;28;20638;-66
2022/06/16 05:43:35;;;;;;;2.47;2.28;;;20.30;99.90;;;;;;4985483;28;20202;-66
2022/06/16 05:46:04;;;;;;;3.53;2.50;;;20.30;99.90;;;;;;4993607;28;20240;-66
2022/06/16 05:48:33;;;;;;;5.80;2.65;;;20.40;99.90;;;;;;5007876;28;20283;-66
2022/06/16 05:51:04;;;;;;;4.20;2.63;;;20.40;99.90;;;;;;5011580;28;20237;-66
2022/06/16 05:53:32;;;;;;;2.97;2.78;;;20.40;99.90;;;;;;4992061;28;20244;-66
2022/06/16 05:56:01;;;;;;;3.17;2.88;;;20.50;99.90;;;;;;5012555;28;20544;-66
2022/06/16 05:58:29;;;;;;;3.28;2.55;;;20.60;99.90;;;;;;4987045;28;20260;-66
2022/06/16 06:00:57;;;;;;;2.67;2.33;;;20.60;99.90;;;;;;5012665;28;20303;-66
2022/06/16 06:03:25;;;;;;;2.45;2.00;;;20.80;99.90;;;;;;5011678;28;20204;-65
2022/06/16 06:05:53;;;;;;;5.55;2.60;;;21.00;99.90;;;;;;5012430;28;20203;-67
2022/06/16 06:16:47;;;;;;;3.70;3.40;;;21.70;99.90;;;;;;5004710;28;20228;-65
2022/06/16 06:19:25;;;;;;;5.65;2.42;;;21.70;99.90;;;;;;5011966;28;20209;-65
2022/06/16 06:21:59;;;;;;;3.22;2.13;;;21.70;99.90;;;;;;5011836;28;20236;-66
2022/06/16 06:24:29;;;;;;;3.10;2.20;;;21.70;99.80;;;;;;5012030;28;20221;-65
2022/06/16 06:27:00;;;;;;;4.00;2.50;;;21.80;99.90;;;;;;5011809;28;20244;-65
2022/06/16 06:29:28;;;;;;;4.28;2.72;;;21.90;99.90;;;;;;5011681;28;20705;-66
2022/06/16 06:31:57;;;;;;;3.58;2.30;;;21.80;99.90;;;;;;5011217;28;20287;-66
2022/06/16 06:34:25;;;;;;;2.97;2.58;;;21.90;99.90;;;;;;4995846;28;20655;-65
2022/06/16 06:36:53;;;;;;;3.92;3.10;;;22.00;99.90;;;;;;4996203;28;20615;-66
2022/06/16 06:39:21;;;;;;;2.58;2.38;;;22.10;99.90;;;;;;5011397;28;20247;-66
2022/06/16 06:41:49;;;;;;;5.38;2.50;;;22.40;99.90;;;;;;5011328;28;20249;-67
2022/06/16 06:44:18;;;;;;;4.78;2.60;;;22.50;99.50;;;;;;5001942;28;20241;-67
2022/06/16 06:46:47;;;;;;;2.85;2.45;;;22.70;99.00;;;;;;5011244;28;20205;-67
2022/06/16 06:49:15;;;;;;;4.15;2.15;;;22.80;98.20;;;;;;5000990;28;20726;-66
2022/06/16 06:51:43;;;;;;;2.40;2.20;;;22.80;98.00;;;;;;4992040;28;20655;-66
2022/06/16 06:54:11;;;;;;;2.72;2.20;;;22.90;98.10;;;;;;4991456;28;20256;-65
2022/06/16 06:56:39;;;;;;;4.57;2.83;;;22.90;98.00;;;;;;4992671;28;20214;-66
2022/06/16 06:59:10;;;;;;;3.30;2.05;;;22.90;97.80;;;;;;4992449;28;20237;-66
2022/06/16 07:01:39;;;;;;;6.07;2.33;;;22.90;98.40;;;;;;4992184;28;20249;-65
2022/06/16 07:04:07;;;;;;;2.95;2.35;;;22.80;97.90;;;;;;4991771;28;20205;-66
2022/06/16 07:06:35;;;;;;;3.28;2.33;;;22.80;99.70;;;;;;4991927;28;20241;-66
2022/06/16 07:09:03;;;;;;;2.88;2.35;;;22.80;99.90;;;;;;4992320;28;20240;-66
2022/06/16 07:11:31;;;;;;;2.50;2.28;;;22.80;98.80;;;;;;4992190;28;20236;-65
2022/06/16 07:13:59;;;;;;;2.20;2.10;;;22.90;99.50;;;;;;4998407;28;20224;-66
2022/06/16 07:16:27;;;;;;;4.53;2.50;;;23.10;99.90;;;;;;4998529;28;20233;-68
2022/06/16 07:18:56;;;;;;;4.82;3.00;;;23.30;98.90;;;;;;4992165;28;20659;-68
2022/06/16 07:21:24;;;;;;;3.15;2.20;;;23.40;96.90;;;;;;4995599;28;20311;-66
2022/06/16 07:23:53;;;;;;;3.03;2.58;;;23.50;97.10;;;;;;5010104;28;20197;-66
2022/06/16 07:26:21;;;;;;;4.38;2.60;;;23.60;96.90;;;;;;5010917;28;20729;-66
2022/06/16 07:28:49;;;;;;;2.60;2.40;;;23.70;97.50;;;;;;5008613;28;20646;-66
2022/06/16 07:31:18;;;;;;;3.53;2.55;;;23.80;96.50;;;;;;4992164;28;20619;-66
2022/06/16 07:34:04;;;;;;;3.50;2.13;;;24.00;96.90;;;;;;4991212;28;20773;-66
2022/06/16 07:36:32;;;;;;;5.35;2.60;;;24.20;95.70;;;;;;4991659;28;20229;-66
2022/06/16 07:38:59;;;;;;;2.67;2.47;;;24.30;96.00;;;;;;4991982;28;20337;-66
2022/06/16 07:41:34;;;;;;;4.20;2.60;;;24.40;95.10;;;;;;4985540;28;20226;-65
2022/06/16 07:44:04;;;;;;;3.47;2.42;;;24.50;94.60;;;;;;4995179;28;20205;-66
2022/06/16 07:46:33;;;;;;;7.22;2.53;;;24.70;94.40;;;;;;5009610;28;20624;-66
2022/06/16 07:49:01;;;;;;;2.97;2.33;;;24.70;93.60;;;;;;5010785;28;20263;-66
2022/06/16 07:51:30;;;;;;;2.42;2.22;;;24.70;94.10;;;;;;5003410;28;20257;-66
2022/06/16 07:53:58;;;;;;;7.18;2.90;;;24.80;93.80;;;;;;4990828;28;20264;-66
2022/06/16 07:56:26;;;;;;;2.95;2.65;;;24.90;93.00;;;;;;4991747;28;20202;-67
2022/06/16 07:58:54;;;;;;;3.70;2.72;;;25.10;93.50;;;;;;4991937;28;20673;-67
2022/06/16 08:01:22;;;;;;;7.57;2.55;;;25.10;92.30;;;;;;4991537;28;20738;-66
2022/06/16 08:03:50;;;;;;;5.07;2.47;;;25.20;92.70;;;;;;4991067;28;20257;-66
2022/06/16 08:06:23;;;;;;;2.83;2.35;;;25.30;91.60;;;;;;4991428;28;20210;-66
2022/06/16 08:08:52;;;;;;;3.20;2.40;;;25.40;91.90;;;;;;4991710;28;20214;-66
2022/06/16 08:14:06;;;;;;;2.55;2.33;;;25.30;90.90;;;;;;4997123;28;20217;-66
2022/06/16 08:16:35;;;;;;;3.25;2.15;;;25.40;91.90;;;;;;4998527;28;20198;-66
2022/06/16 08:19:04;;;;;;;4.32;2.78;;;25.60;91.40;;;;;;4995641;28;20202;-68
2022/06/16 08:21:32;;;;;;;2.88;2.15;;;25.60;91.10;;;;;;4995084;28;20742;-66
2022/06/16 08:24:01;;;;;;;3.05;2.30;;;25.60;91.10;;;;;;4994428;28;20264;-66
2022/06/16 08:26:31;;;;;;;3.17;1.95;;;25.80;91.20;;;;;;4995360;28;20255;-66
2022/06/16 08:28:59;;;;;;;7.70;3.17;;;26.00;91.40;;;;;;4995158;28;20222;-66
2022/06/16 08:31:27;;;;;;;6.85;3.00;;;26.20;91.20;;;;;;4995185;28;20274;-65
2022/06/16 08:33:55;;;;;;;4.00;2.65;;;26.20;91.50;;;;;;4994192;28;20683;-66
2022/06/16 08:36:24;;;;;;;6.88;2.88;;;26.40;91.10;;;;;;4995068;28;20231;-66
2022/06/16 08:38:52;;;;;;;4.13;2.67;;;26.50;91.50;;;;;;5005520;28;20667;-66
2022/06/16 08:41:26;;;;;;;5.35;2.40;;;26.60;90.80;;;;;;5013749;28;20225;-66
2022/06/16 08:44:03;;;;;;;2.85;2.63;;;26.80;90.90;;;;;;5001155;28;20235;-67
2022/06/16 08:46:36;;;;;;;3.97;2.35;;;27.10;90.60;;;;;;5003081;28;20255;-66
2022/06/16 08:49:11;;;;;;;3.15;2.53;;;27.10;90.40;;;;;;4989353;28;20587;-67
2022/06/16 08:51:52;;;;;;;3.15;2.08;;;27.30;90.20;;;;;;4994982;28;20328;-67
2022/06/16 08:54:33;;;;;;;3.05;2.55;;;27.40;89.40;;;;;;4993919;28;20229;-67
2022/06/16 08:57:11;;;;;;;6.78;2.70;;;27.70;90.40;;;;;;4994758;28;20581;-66
2022/06/16 08:59:43;;;;;;;2.20;2.05;;;28.00;88.70;;;;;;4994817;28;20209;-67
2022/06/16 09:02:18;;;;;;;2.78;2.50;;;28.40;90.00;;;;;;4987715;28;20237;-67
2022/06/16 09:04:51;;;;;;;2.80;2.60;;;28.70;87.40;;;;;;4989732;28;20241;-66
2022/06/16 09:07:31;;;;;;;3.38;2.58;;;29.00;85.60;;;;;;4994694;28;20593;-68
2022/06/16 09:10:18;;;;;;;2.85;2.13;;;29.00;85.80;;;;;;4995379;28;20214;-66
2022/06/16 09:13:12;;;;;;;3.33;2.72;;;29.20;85.70;;;;;;4998064;28;20205;-66
2022/06/16 09:15:44;;;;;;;4.85;2.40;;;29.50;85.40;;;;;;5000035;28;20290;-67
2022/06/16 09:18:33;;;;;;;2.65;2.45;;;29.50;88.50;;;;;;5013307;28;20232;-66
2022/06/16 09:21:11;;;;;;;3.22;2.47;;;30.00;85.50;;;;;;5013187;28;20225;-67
2022/06/16 09:23:51;;;;;;;4.87;2.43;;;30.10;84.00;;;;;;5007148;28;20229;-66
2022/06/16 09:26:24;;;;;;;7.93;2.45;;;30.10;83.00;;;;;;5012796;28;20274;-66
2022/06/16 09:29:00;;;;;;;3.22;2.63;;;30.20;85.50;;;;;;5012973;28;20237;-67
2022/06/16 09:31:32;;;;;;;4.65;2.45;;;30.20;83.30;;;;;;5012875;28;20702;-66
2022/06/16 09:34:06;;;;;;;3.45;2.20;;;30.10;83.90;;;;;;5012084;28;20245;-66
2022/06/16 09:36:38;;;;;;;5.40;3.03;;;30.20;81.70;;;;;;5012695;28;20206;-66
2022/06/16 09:39:12;;;;;;;2.50;2.30;;;30.30;81.60;;;;;;5006448;28;20624;-66
2022/06/16 09:44:57;;;;;;;2.80;2.38;;;30.40;81.60;;;;;;4998004;28;20205;-67
2022/06/16 09:47:31;;;;;;;3.07;2.53;;;30.40;82.40;;;;;;5012620;28;20205;-66
2022/06/16 09:50:04;;;;;;;4.53;2.00;;;30.50;82.20;;;;;;4988101;28;20640;-66
2022/06/16 09:52:38;;;;;;;4.00;1.90;;;30.60;79.80;;;;;;4992949;28;20265;-66
2022/06/16 09:55:12;;;;;;;3.47;2.50;;;30.50;80.40;;;;;;4993326;28;20756;-66
2022/06/16 09:57:45;;;;;;;5.15;2.65;;;30.50;83.30;;;;;;4993655;28;20568;-66
2022/06/16 10:00:17;;;;;;;2.35;1.65;;;30.60;81.50;;;;;;4993519;28;20241;-67
2022/06/16 10:02:49;;;;;;;3.30;2.05;;;30.90;79.30;;;;;;4993628;28;20284;-67
2022/06/16 10:05:21;;;;;;;4.82;2.10;;;30.60;76.90;;;;;;4993435;28;20761;-65
2022/06/16 10:07:57;;;;;;;3.80;2.00;;;30.80;77.80;;;;;;4993457;28;20253;-67
2022/06/16 10:10:32;;;;;;;2.35;1.63;;;31.10;71.10;;;;;;4993943;28;20688;-66
2022/06/16 10:13:06;;;;;;;2.10;1.70;;;31.10;64.40;;;;;;4986318;28;20247;-67
2022/06/16 10:15:42;;;;;;;3.33;2.20;;;31.30;64.70;;;;;;5002205;28;21052;-67
2022/06/16 10:18:11;;;;;;;3.33;2.33;;;31.60;71.40;;;;;;5011981;28;20654;-66
2022/06/16 10:20:39;;;;;;;2.10;2.00;;;31.60;72.00;;;;;;5011847;28;20640;-67
2022/06/16 10:23:13;;;;;;;3.57;2.10;;;32.00;72.60;;;;;;5011217;28;20612;-66
2022/06/16 10:25:45;;;;;;;2.70;2.43;;;31.80;72.40;;;;;;5007112;28;20656;-67
2022/06/16 10:28:24;;;;;;;2.67;2.47;;;32.10;71.50;;;;;;5011955;28;21223;-67
2022/06/16 10:30:54;;;;;;;2.83;2.30;;;32.20;69.50;;;;;;5011574;28;21410;-66
2022/06/16 10:33:23;;;;;;;3.00;2.80;;;32.30;70.30;;;;;;4996167;28;21189;-66
2022/06/16 10:35:55;;;;;;;3.57;2.50;;;32.10;71.00;;;;;;4992977;28;21302;-68
2022/06/16 10:38:32;;;;;;;2.90;2.50;;;32.10;71.10;;;;;;4991800;28;20724;-66
2022/06/16 10:41:03;;;;;;;3.83;2.40;;;32.60;71.60;;;;;;4986465;28;20687;-68
2022/06/16 10:43:41;;;;;;;2.83;2.63;;;32.70;69.20;;;;;;4994773;28;20663;-66
2022/06/16 10:46:14;;;;;;;3.77;2.50;;;32.40;69.60;;;;;;4999004;28;20704;-66
2022/06/16 10:48:53;;;;;;;6.43;3.63;;;32.60;70.60;;;;;;4992340;28;20637;-67
2022/06/16 10:51:23;;;;;;;4.80;2.67;;;32.60;69.20;;;;;;4992587;28;20644;-66
2022/06/16 10:54:03;;;;;;;4.77;1.87;;;32.50;67.90;;;;;;4992055;28;20612;-67
2022/06/16 10:56:31;;;;;;;2.00;1.90;;;32.40;67.30;;;;;;4992668;28;20647;-66
2022/06/16 10:59:04;;;;;;;2.73;2.30;;;32.20;66.80;;;;;;4992599;28;20620;-67
2022/06/16 11:01:40;;;;;;;3.63;2.00;;;32.30;67.90;;;;;;4991961;28;20699;-66
2022/06/16 11:04:13;;;;;;;3.20;1.83;;;32.40;65.40;;;;;;4998130;28;20670;-66
2022/06/16 11:06:47;;;;;;;4.17;2.30;;;32.50;66.40;;;;;;5011409;28;20998;-66
2022/06/16 11:09:19;;;;;;;2.30;2.10;;;32.30;68.10;;;;;;5011491;28;20703;-67
2022/06/16 11:11:53;;;;;;;2.50;1.90;;;32.30;65.60;;;;;;5011183;28;20651;-67
2022/06/16 11:14:34;;;;;;;1.80;1.70;;;32.30;63.80;;;;;;4999580;28;20626;-66
2022/06/16 11:17:09;;;;;;;3.73;2.07;;;32.50;65.50;;;;;;5009958;28;21110;-66
2022/06/16 11:19:44;;;;;;;1.60;1.50;;;32.10;64.30;;;;;;4997628;28;20636;-66
2022/06/16 11:22:17;;;;;;;3.00;2.30;;;32.30;64.70;;;;;;4985569;28;20675;-66
2022/06/16 11:24:55;;;;;;;3.67;2.60;;;32.60;67.90;;;;;;4992207;28;20612;-67
2022/06/16 11:27:23;;;;;;;3.13;2.27;;;32.50;69.40;;;;;;4992143;28;20621;-67
2022/06/16 11:29:51;;;;;;;3.37;2.27;;;32.10;68.50;;;;;;4991901;28;20664;-67
2022/06/16 11:32:24;;;;;;;3.73;2.47;;;31.80;71.40;;;;;;4991276;28;20759;-67
2022/06/16 11:34:53;;;;;;;3.70;2.33;;;32.00;68.70;;;;;;4991676;28;21087;-67
2022/06/16 11:37:47;;;;;;;3.23;1.73;;;32.20;67.80;;;;;;4991964;28;20621;-65
2022/06/16 11:40:32;;;;;;;1.77;1.53;;;32.50;63.30;;;;;;5010701;28;21183;-66
2022/06/16 11:43:14;;;;;;;1.77;1.47;;;33.00;62.60;;;;;;4988661;28;20641;-65
2022/06/16 11:45:47;;;;;;;3.17;1.70;;;33.10;61.00;;;;;;4991538;28;20706;-67
2022/06/16 11:48:25;;;;;;;2.43;1.53;;;33.40;59.80;;;;;;4999776;28;20647;-67
2022/06/16 11:51:00;;;;;;;2.27;1.40;;;33.40;58.40;;;;;;4992979;28;20714;-67
2022/06/16 11:53:39;;;;;;;5.03;1.93;;;33.30;57.90;;;;;;4995373;28;20608;-67
2022/06/16 11:56:11;;;;;;;;;;;33.30;59.00;;;;;;4995681;28;20700;-66
2022/06/16 11:58:52;;;;;;;4.50;1.73;;;33.20;58.50;;;;;;4995610;28;20813;-66
2022/06/16 12:01:25;;;;;;;4.37;1.90;;;33.40;59.70;;;;;;4995623;28;20732;-67
2022/06/16 12:04:02;;;;;;;2.07;1.53;;;33.50;59.70;;;;;;4995352;28;20628;-67
2022/06/16 12:06:55;;;;;;;3.77;1.67;;;33.00;59.30;;;;;;4995764;28;20627;-66
2022/06/16 12:09:38;;;;;;;1.33;1.20;;;33.10;59.00;;;;;;4995819;28;20644;-66
2022/06/16 12:12:14;;;;;;;1.60;1.50;;;32.80;57.50;;;;;;5004072;28;20688;-67
2022/06/16 12:14:51;;;;;;;3.17;1.70;;;32.70;59.20;;;;;;5006859;28;21027;-67
2022/06/16 12:17:24;;;;;;;2.33;1.43;;;32.40;58.20;;;;;;5011563;28;20643;-67
2022/06/16 12:20:02;;;;;;;6.43;1.60;;;32.90;58.80;;;;;;5014186;28;21196;-67
2022/06/16 12:22:54;;;;;;;1.37;1.27;;;33.10;57.70;;;;;;5011828;28;20607;-67
2022/06/16 12:25:30;;;;;;;1.40;1.20;;;33.30;57.40;;;;;;4995230;28;20683;-67
2022/06/16 12:28:06;;;;;;;1.63;1.20;;;33.30;57.40;;;;;;4995568;28;20620;-67
2022/06/16 12:30:38;;;;;;;1.50;1.20;;;33.70;56.40;;;;;;4994908;28;20647;-67
2022/06/16 12:33:12;;;;;;;1.53;1.30;;;33.60;54.80;;;;;;4988350;28;20660;-67
2022/06/16 12:35:49;;;;;;;1.47;1.10;;;33.10;56.00;;;;;;4995181;28;20640;-67
2022/06/16 12:38:21;;;;;;;3.63;1.53;;;33.10;56.00;;;;;;4994967;28;20648;-66
2022/06/16 12:40:53;;;;;;;2.47;1.30;;;33.30;57.50;;;;;;5009905;28;21075;-66
2022/06/16 12:43:25;;;;;;;1.40;1.27;;;33.50;56.70;;;;;;5013304;28;21700;-67
2022/06/16 12:46:03;;;;;;;3.23;1.30;;;33.30;57.40;;;;;;5004076;28;20620;-67
2022/06/16 12:48:37;;;;;;;1.67;1.10;;;33.10;55.40;;;;;;5007765;28;20619;-67
2022/06/16 12:51:11;;;;;;;2.10;1.60;;;32.60;57.30;;;;;;5013743;28;20783;-67
2022/06/16 12:53:43;;;;;;;1.77;1.30;;;32.60;57.60;;;;;;5012390;28;20619;-67
2022/06/16 12:56:16;;;;;;;1.40;1.20;;;32.90;55.70;;;;;;5007192;28;20710;-67
2022/06/16 12:58:50;;;;;;;1.47;1.07;;;33.00;55.50;;;;;;4988990;28;20656;-67
2022/06/16 13:01:19;;;;;;;1.70;1.40;;;32.90;56.70;;;;;;4993791;28;20704;-67
2022/06/16 13:03:55;;;;;;;1.80;1.47;;;32.90;57.00;;;;;;4994051;28;20655;-66
2022/06/16 13:06:26;;;;;;;1.63;1.53;;;33.20;57.00;;;;;;4994788;28;20644;-67
2022/06/16 13:08:57;;;;;;;1.23;1.10;;;33.60;57.10;;;;;;4994145;28;20604;-67
2022/06/16 13:11:29;;;;;;;1.90;1.47;;;33.90;57.50;;;;;;4991572;28;20652;-66
2022/06/16 13:13:59;;;;;;;1.33;1.23;;;34.40;57.40;;;;;;4993896;28;20647;-67
2022/06/16 13:16:32;;;;;;;3.30;1.80;;;34.50;58.30;;;;;;5002099;28;20758;-66
2022/06/16 13:19:08;;;;;;;1.47;1.37;;;34.80;57.60;;;;;;5011927;28;20624;-67
2022/06/16 13:21:41;;;;;;;2.23;2.03;;;34.40;57.40;;;;;;5013102;28;20706;-66
2022/06/16 13:24:21;;;;;;;2.30;1.30;;;34.60;57.10;;;;;;4987276;28;20628;-67
2022/06/16 13:26:57;;;;;;;2.20;1.13;;;34.80;57.10;;;;;;5007994;28;20654;-66